createdAt,value
2023-04-02T00:00:16.100Z,53.90
2023-04-02T00:02:48.132Z,53.80
2023-04-02T00:05:40.411Z,53.70
2023-04-02T00:08:20.573Z,53.80
2023-04-02T00:10:49.465Z,53.90
2023-04-02T00:13:25.187Z,53.90
2023-04-02T00:15:56.296Z,53.90
2023-04-02T00:18:23.762Z,54.00
2023-04-02T00:20:54.944Z,54.20
2023-04-02T00:23:23.600Z,54.10
2023-04-02T00:25:50.271Z,53.90
2023-04-02T00:28:19.750Z,54.00
2023-04-02T00:30:48.722Z,53.80
2023-04-02T00:33:18.235Z,53.80
2023-04-02T00:35:45.358Z,53.70
2023-04-02T00:38:20.700Z,53.60
2023-04-02T00:40:50.881Z,53.60
2023-04-02T00:43:17.562Z,53.50
2023-04-02T00:45:47.463Z,53.40
2023-04-02T00:48:23.606Z,53.50
2023-04-02T00:50:52.849Z,53.50
2023-04-02T00:53:25.422Z,53.50
2023-04-02T00:55:54.067Z,53.50
2023-04-02T00:58:27.020Z,53.50
2023-04-02T01:00:54.374Z,53.40
2023-04-02T01:03:30.714Z,53.40
2023-04-02T01:06:01.309Z,53.50
2023-04-02T01:08:35.983Z,53.50
2023-04-02T01:11:15.849Z,53.50
2023-04-02T01:13:50.782Z,53.40
2023-04-02T01:16:28.192Z,53.40
2023-04-02T01:19:01.749Z,53.40
2023-04-02T01:21:47.774Z,53.40
2023-04-02T01:24:15.039Z,53.30
2023-04-02T01:26:54.708Z,53.30
2023-04-02T01:29:26.679Z,53.30
2023-04-02T01:31:55.588Z,53.20
2023-04-02T01:34:26.439Z,53.00
2023-04-02T01:37:08.521Z,53.10
2023-04-02T01:39:47.898Z,52.90
2023-04-02T01:42:20.602Z,53.00
2023-04-02T01:44:50.699Z,53.20
2023-04-02T01:47:19.659Z,53.20
2023-04-02T01:49:47.040Z,53.20
2023-04-02T01:52:18.394Z,53.20
2023-04-02T01:54:45.928Z,53.80
2023-04-02T01:57:13.007Z,53.00
2023-04-02T01:59:40.164Z,53.00
2023-04-02T02:02:12.553Z,52.90
2023-04-02T02:04:40.180Z,53.00
2023-04-02T02:07:14.188Z,52.90
2023-04-02T02:09:41.532Z,52.90
2023-04-02T02:12:12.085Z,52.90
2023-04-02T02:14:39.270Z,52.90
2023-04-02T02:17:12.012Z,52.80
2023-04-02T02:19:40.226Z,52.80
2023-04-02T02:22:10.831Z,52.70
2023-04-02T02:24:38.079Z,52.70
2023-04-02T02:27:36.904Z,52.80
2023-04-02T02:30:11.425Z,52.70
2023-04-02T02:32:45.779Z,52.70
2023-04-02T02:35:18.963Z,52.70
2023-04-02T02:37:50.801Z,52.70
2023-04-02T02:40:21.588Z,52.70
2023-04-02T02:42:52.196Z,52.90
2023-04-02T02:45:22.792Z,52.70
2023-04-02T02:47:53.200Z,52.60
2023-04-02T02:50:23.270Z,52.60
2023-04-02T02:52:53.904Z,52.60
2023-04-02T02:55:24.368Z,52.50
2023-04-02T02:57:58.909Z,52.50
2023-04-02T03:00:26.614Z,52.50
2023-04-02T03:02:56.771Z,52.50
2023-04-02T03:05:26.806Z,52.40
2023-04-02T03:07:57.308Z,52.40
2023-04-02T03:10:33.928Z,52.40
2023-04-02T03:13:08.129Z,52.30
2023-04-02T03:15:40.683Z,52.30
2023-04-02T03:18:14.273Z,52.30
2023-04-02T03:20:46.937Z,52.30
2023-04-02T03:23:19.293Z,52.30
2023-04-02T03:25:52.623Z,52.30
2023-04-02T03:28:22.768Z,52.20
2023-04-02T03:30:54.403Z,52.20
2023-04-02T03:33:27.445Z,52.10
2023-04-02T03:35:59.870Z,52.10
2023-04-02T03:38:30.140Z,52.10
2023-04-02T03:41:04.692Z,52.20
2023-04-02T03:43:36.618Z,52.10
2023-04-02T03:46:13.144Z,52.10
2023-04-02T03:48:45.014Z,52.00
2023-04-02T03:51:17.985Z,52.00
2023-04-02T03:53:45.444Z,52.00
2023-04-02T03:56:25.160Z,52.00
2023-04-02T03:59:00.671Z,51.90
2023-04-02T04:01:33.025Z,52.00
2023-04-02T04:04:07.665Z,52.00
2023-04-02T04:06:36.406Z,52.00
2023-04-02T04:09:09.617Z,51.80
2023-04-02T04:11:39.564Z,51.90
2023-04-02T04:14:13.429Z,51.70
2023-04-02T04:16:45.845Z,51.90
2023-04-02T04:19:17.313Z,52.00
2023-04-02T04:21:44.025Z,51.90
2023-04-02T04:24:18.503Z,51.90
2023-04-02T04:26:52.503Z,51.80
2023-04-02T04:29:33.337Z,51.80
2023-04-02T04:32:14.815Z,51.60
2023-04-02T04:34:45.857Z,51.80
2023-04-02T04:37:18.533Z,51.70
2023-04-02T04:39:49.609Z,51.70
2023-04-02T04:42:20.160Z,51.60
2023-04-02T04:44:53.214Z,51.60
2023-04-02T04:47:25.800Z,51.60
2023-04-02T04:49:58.048Z,51.70
2023-04-02T04:52:29.239Z,51.60
2023-04-02T04:54:56.067Z,51.50
2023-04-02T04:57:30.554Z,51.50
2023-04-02T05:00:02.245Z,51.50
2023-04-02T05:02:33.995Z,51.40
2023-04-02T05:05:03.592Z,51.50
2023-04-02T05:07:35.970Z,51.40
2023-04-02T05:10:08.551Z,51.40
2023-04-02T05:12:39.442Z,51.30
2023-04-02T05:15:15.946Z,51.40
2023-04-02T05:17:48.510Z,52.10
2023-04-02T05:20:23.326Z,51.40
2023-04-02T05:22:55.120Z,51.40
2023-04-02T05:25:24.792Z,51.40
2023-04-02T05:27:58.032Z,51.40
2023-04-02T05:30:40.505Z,51.50
2023-04-02T05:33:18.562Z,51.60
2023-04-02T05:35:48.418Z,51.50
2023-04-02T05:38:20.952Z,51.50
2023-04-02T05:40:51.516Z,51.60
2023-04-02T05:43:23.979Z,51.50
2023-04-02T05:45:53.672Z,51.40
2023-04-02T05:48:25.331Z,51.40
2023-04-02T05:50:56.345Z,51.40
2023-04-02T05:53:26.246Z,51.40
2023-04-02T05:55:58.021Z,51.30
2023-04-02T05:58:35.947Z,51.30
2023-04-02T06:01:11.509Z,51.30
2023-04-02T06:03:44.062Z,51.20
2023-04-02T06:06:18.977Z,51.20
2023-04-02T06:08:52.494Z,51.30
2023-04-02T06:11:22.267Z,51.30
2023-04-02T06:13:48.992Z,51.40
2023-04-02T06:16:17.009Z,51.30
2023-04-02T06:18:44.546Z,51.30
2023-04-02T06:21:16.319Z,51.30
2023-04-02T06:23:46.997Z,51.40
2023-04-02T06:26:20.661Z,51.30
2023-04-02T06:28:50.476Z,51.30
2023-04-02T06:31:27.289Z,51.30
2023-04-02T06:33:54.541Z,51.20
2023-04-02T06:36:23.403Z,51.20
2023-04-02T06:38:52.410Z,51.80
2023-04-02T06:41:21.422Z,51.10
2023-04-02T06:43:51.724Z,51.10
2023-04-02T06:46:23.258Z,51.10
2023-04-02T06:48:54.450Z,51.10
2023-04-02T06:51:24.193Z,51.00
2023-04-02T06:53:50.915Z,51.10
2023-04-02T06:56:27.274Z,51.20
2023-04-02T06:58:54.046Z,51.20
2023-04-02T07:01:25.721Z,51.20
2023-04-02T07:03:52.771Z,51.20
2023-04-02T07:06:21.752Z,51.20
2023-04-02T07:08:48.914Z,51.10
2023-04-02T07:11:17.025Z,51.20
2023-04-02T07:13:45.157Z,51.10
2023-04-02T07:16:15.032Z,51.10
2023-04-02T07:18:42.301Z,51.10
2023-04-02T07:21:09.336Z,51.10
2023-04-02T07:23:37.449Z,51.10
2023-04-02T07:26:05.934Z,51.10
2023-04-02T07:28:33.053Z,51.00
2023-04-02T07:31:00.063Z,51.10
2023-04-02T07:33:29.103Z,51.10
2023-04-02T07:35:57.675Z,51.10
2023-04-02T07:38:24.501Z,51.10
2023-04-02T07:40:52.796Z,51.00
2023-04-02T07:43:19.520Z,51.00
2023-04-02T07:45:46.162Z,50.80
2023-04-02T07:48:14.376Z,50.80
2023-04-02T07:50:41.536Z,51.00
2023-04-02T07:53:15.606Z,51.00
2023-04-02T07:55:42.275Z,51.00
2023-04-02T07:58:10.415Z,50.90
2023-04-02T08:00:37.090Z,50.80
2023-04-02T08:03:04.653Z,51.00
2023-04-02T08:05:32.371Z,50.80
2023-04-02T08:07:59.119Z,50.80
2023-04-02T08:10:25.826Z,50.80
2023-04-02T08:12:52.477Z,50.90
2023-04-02T08:15:20.535Z,50.90
2023-04-02T08:17:47.584Z,50.80
2023-04-02T08:20:16.567Z,50.70
2023-04-02T08:22:43.665Z,50.80
2023-04-02T08:25:10.464Z,50.70
2023-04-02T08:27:37.513Z,50.80
2023-04-02T08:30:05.841Z,50.90
2023-04-02T08:32:34.245Z,50.90
2023-04-02T08:35:01.195Z,50.80
2023-04-02T08:37:27.951Z,50.80
2023-04-02T08:39:56.362Z,50.70
2023-04-02T08:42:29.351Z,50.70
2023-04-02T08:45:23.097Z,50.70
2023-04-02T08:47:54.223Z,50.80
2023-04-02T08:50:28.255Z,50.90
2023-04-02T08:52:55.313Z,50.80
2023-04-02T08:55:32.045Z,50.70
2023-04-02T08:58:08.585Z,50.80
2023-04-02T09:00:39.046Z,50.80
2023-04-02T09:03:13.760Z,50.70
2023-04-02T09:05:43.263Z,50.80
2023-04-02T09:08:17.743Z,50.70
2023-04-02T09:10:51.641Z,50.70
2023-04-02T09:13:24.127Z,50.80
2023-04-02T09:15:57.127Z,50.60
2023-04-02T09:18:29.998Z,50.70
2023-04-02T09:20:56.717Z,50.70
2023-04-02T09:23:25.198Z,50.70
2023-04-02T09:26:03.353Z,50.70
2023-04-02T09:28:31.578Z,50.80
2023-04-02T09:31:09.236Z,50.70
2023-04-02T09:33:45.865Z,50.70
2023-04-02T09:36:28.131Z,50.30
2023-04-02T09:39:00.508Z,50.70
2023-04-02T09:41:29.972Z,50.80
2023-04-02T09:44:14.005Z,50.60
2023-04-02T09:46:51.691Z,50.60
2023-04-02T09:49:25.715Z,50.80
2023-04-02T09:52:19.239Z,50.90
2023-04-02T09:54:46.935Z,50.90
2023-04-02T09:57:20.794Z,51.20
2023-04-02T09:59:47.547Z,50.90
2023-04-02T10:02:26.707Z,51.00
2023-04-02T10:04:55.118Z,50.80
2023-04-02T10:07:33.455Z,50.90
2023-04-02T10:10:01.631Z,50.90
2023-04-02T10:12:41.356Z,51.20
2023-04-02T10:15:16.403Z,51.40
2023-04-02T10:17:45.010Z,51.00
2023-04-02T10:20:19.631Z,51.30
2023-04-02T10:22:46.798Z,50.80
2023-04-02T10:25:14.964Z,51.20
2023-04-02T10:27:48.945Z,51.60
2023-04-02T10:30:21.329Z,51.60
2023-04-02T10:32:52.107Z,51.80
2023-04-02T10:35:32.080Z,51.50
2023-04-02T10:38:24.147Z,51.50
2023-04-02T10:40:58.075Z,51.50
2023-04-02T10:43:59.373Z,51.70
2023-04-02T10:46:39.921Z,51.50
2023-04-02T10:49:15.980Z,51.50
2023-04-02T10:51:46.946Z,51.80
2023-04-02T10:54:29.840Z,51.70
2023-04-02T10:57:07.946Z,51.80
2023-04-02T10:59:38.244Z,51.00
2023-04-02T11:02:24.242Z,50.10
2023-04-02T11:04:53.926Z,50.60
2023-04-02T11:07:27.529Z,50.90
2023-04-02T11:09:57.369Z,50.80
2023-04-02T11:12:41.765Z,50.50
2023-04-02T11:15:16.020Z,50.20
2023-04-02T11:17:43.217Z,50.30
2023-04-02T11:20:47.279Z,50.20
2023-04-02T11:23:18.428Z,50.30
2023-04-02T11:25:46.280Z,50.30
2023-04-02T11:28:19.654Z,49.90
2023-04-02T11:30:48.388Z,50.00
2023-04-02T11:33:41.279Z,50.10
2023-04-02T11:36:42.653Z,50.10
2023-04-02T11:39:17.569Z,49.90
2023-04-02T11:42:21.120Z,49.60
2023-04-02T11:44:47.819Z,48.80
2023-04-02T11:47:16.800Z,48.80
2023-04-02T11:50:25.477Z,49.50
2023-04-02T11:52:53.461Z,50.40
2023-04-02T11:55:25.609Z,49.70
2023-04-02T11:58:25.229Z,49.50
2023-04-02T12:01:37.497Z,49.90
2023-04-02T12:04:39.774Z,50.20
2023-04-02T12:07:23.016Z,49.60
2023-04-02T12:09:52.861Z,49.50
2023-04-02T12:12:27.441Z,50.30
2023-04-02T12:14:55.407Z,50.10
2023-04-02T12:17:29.075Z,51.10
2023-04-02T12:19:58.704Z,50.60
2023-04-02T12:22:28.340Z,51.00
2023-04-02T12:24:58.288Z,50.40
2023-04-02T12:27:28.538Z,48.60
2023-04-02T12:29:56.376Z,46.30
2023-04-02T12:32:29.793Z,49.40
2023-04-02T12:35:04.091Z,48.40
2023-04-02T12:37:31.038Z,48.80
2023-04-02T12:39:59.506Z,47.90
2023-04-02T12:42:29.588Z,45.90
2023-04-02T12:44:56.233Z,46.30
2023-04-02T12:47:23.040Z,46.70
2023-04-02T12:49:50.490Z,46.40
2023-04-02T12:52:19.743Z,46.10
2023-04-02T12:54:48.888Z,47.00
2023-04-02T12:57:30.675Z,47.40
2023-04-02T12:59:59.581Z,45.60
2023-04-02T13:02:28.015Z,46.90
2023-04-02T13:04:56.241Z,46.80
2023-04-02T13:07:25.948Z,47.00
2023-04-02T13:09:54.312Z,46.70
2023-04-02T13:12:25.744Z,47.30
2023-04-02T13:14:54.244Z,46.90
2023-04-02T13:17:45.787Z,48.50
2023-04-02T13:20:29.621Z,47.50
2023-04-02T13:22:56.533Z,41.80
2023-04-02T13:25:29.111Z,41.60
2023-04-02T13:27:55.878Z,41.20
2023-04-02T13:30:24.846Z,43.80
2023-04-02T13:32:53.224Z,45.30
2023-04-02T13:35:20.120Z,45.80
2023-04-02T13:37:46.927Z,45.10
2023-04-02T13:40:15.482Z,43.90
2023-04-02T13:42:43.571Z,44.60
2023-04-02T13:45:23.616Z,46.20
2023-04-02T13:47:51.743Z,46.20
2023-04-02T13:50:20.336Z,46.50
2023-04-02T13:52:48.080Z,46.90
2023-04-02T13:55:15.277Z,46.40
2023-04-02T13:57:41.968Z,46.90
2023-04-02T14:00:10.264Z,46.40
2023-04-02T14:02:40.886Z,44.70
2023-04-02T14:05:23.001Z,44.50
2023-04-02T14:08:00.918Z,45.90
2023-04-02T14:10:51.618Z,44.50
2023-04-02T14:13:51.491Z,43.10
2023-04-02T14:16:36.360Z,46.20
2023-04-02T14:19:19.475Z,46.50
2023-04-02T14:22:00.204Z,46.30
2023-04-02T14:24:34.156Z,45.30
2023-04-02T14:27:14.836Z,45.70
2023-04-02T14:29:47.682Z,45.50
2023-04-02T14:32:20.631Z,43.00
2023-04-02T14:34:54.064Z,45.40
2023-04-02T14:37:27.618Z,45.40
2023-04-02T14:40:07.479Z,45.90
2023-04-02T14:42:40.524Z,44.90
2023-04-02T14:45:13.657Z,45.10
2023-04-02T14:47:45.153Z,44.30
2023-04-02T14:50:16.714Z,44.20
2023-04-02T14:52:47.342Z,44.70
2023-04-02T14:55:21.434Z,42.00
2023-04-02T14:57:52.467Z,45.40
2023-04-02T15:00:28.059Z,45.80
2023-04-02T15:03:02.810Z,45.60
2023-04-02T15:05:36.885Z,45.30
2023-04-02T15:08:06.970Z,45.20
2023-04-02T15:10:36.688Z,43.70
2023-04-02T15:13:11.079Z,44.40
2023-04-02T15:15:42.813Z,45.30
2023-04-02T15:18:12.636Z,44.60
2023-04-02T15:20:46.864Z,43.90
2023-04-02T15:23:25.726Z,44.10
2023-04-02T15:26:02.332Z,44.60
2023-04-02T15:28:34.420Z,43.80
2023-04-02T15:31:06.435Z,45.30
2023-04-02T15:33:40.273Z,45.70
2023-04-02T15:36:44.441Z,45.40
2023-04-02T15:39:36.226Z,44.90
2023-04-02T15:42:12.963Z,44.60
2023-04-02T15:44:46.231Z,45.10
2023-04-02T15:47:21.475Z,45.20
2023-04-02T15:49:57.512Z,44.80
2023-04-02T15:52:31.441Z,43.60
2023-04-02T15:55:16.186Z,44.60
2023-04-02T15:58:05.779Z,44.90
2023-04-02T16:00:34.326Z,45.00
2023-04-02T16:03:46.779Z,44.50
2023-04-02T16:06:22.796Z,44.80
2023-04-02T16:08:58.926Z,44.40
2023-04-02T16:11:27.448Z,44.60
2023-04-02T16:14:04.505Z,44.70
2023-04-02T16:16:34.210Z,44.60
2023-04-02T16:19:06.294Z,44.80
2023-04-02T16:21:47.993Z,44.10
2023-04-02T16:24:15.103Z,43.80
2023-04-02T16:26:52.422Z,43.70
2023-04-02T16:29:51.088Z,44.00
2023-04-02T16:32:40.807Z,44.10
2023-04-02T16:37:55.329Z,43.70
2023-04-02T16:40:32.743Z,43.50
2023-04-02T16:43:12.658Z,44.10
2023-04-02T16:45:45.776Z,43.90
2023-04-02T16:48:19.377Z,43.90
2023-04-02T16:50:54.231Z,44.40
2023-04-02T16:53:30.216Z,44.60
2023-04-02T16:56:14.253Z,44.30
2023-04-02T16:58:49.063Z,44.00
2023-04-02T17:01:25.010Z,44.20
2023-04-02T17:04:09.010Z,44.10
2023-04-02T17:06:41.444Z,43.70
2023-04-02T17:09:15.382Z,44.10
2023-04-02T17:11:48.327Z,44.80
2023-04-02T17:14:23.701Z,44.10
2023-04-02T17:16:54.588Z,43.80
2023-04-02T17:19:24.651Z,43.90
2023-04-02T17:21:56.074Z,43.70
2023-04-02T17:24:26.356Z,43.60
2023-04-02T17:26:56.583Z,43.70
2023-04-02T17:29:31.350Z,43.80
2023-04-02T17:32:01.661Z,43.30
2023-04-02T17:34:28.949Z,43.70
2023-04-02T17:37:06.665Z,43.80
2023-04-02T17:39:41.433Z,43.90
2023-04-02T17:42:20.722Z,43.60
2023-04-02T17:45:00.949Z,43.60
2023-04-02T17:47:37.105Z,43.80
2023-04-02T17:50:32.803Z,44.00
2023-04-02T17:53:05.656Z,43.70
2023-04-02T17:55:42.085Z,44.20
2023-04-02T17:58:22.785Z,43.90
2023-04-02T18:01:00.637Z,44.00
2023-04-02T18:03:45.602Z,44.40
2023-04-02T18:06:18.464Z,44.00
2023-04-02T18:09:00.519Z,44.00
2023-04-02T18:11:37.196Z,44.30
2023-04-02T18:14:19.824Z,44.10
2023-04-02T18:16:54.183Z,43.70
2023-04-02T18:19:25.580Z,44.00
2023-04-02T18:21:59.002Z,44.10
2023-04-02T18:24:41.039Z,44.10
2023-04-02T18:27:25.469Z,43.80
2023-04-02T18:30:02.261Z,43.80
2023-04-02T18:32:47.174Z,43.80
2023-04-02T18:35:20.436Z,44.00
2023-04-02T18:38:00.530Z,43.80
2023-04-02T18:40:38.825Z,43.80
2023-04-02T18:43:17.902Z,43.80
2023-04-02T18:45:54.729Z,44.10
2023-04-02T18:48:34.100Z,44.30
2023-04-02T18:51:01.887Z,44.30
2023-04-02T18:53:32.357Z,44.30
2023-04-02T18:56:03.471Z,44.10
2023-04-02T18:58:38.247Z,43.80
2023-04-02T19:01:06.620Z,44.00
2023-04-02T19:03:39.648Z,43.80
2023-04-02T19:06:12.454Z,43.80
2023-04-02T19:08:45.731Z,44.20
2023-04-02T19:11:15.805Z,44.20
2023-04-02T19:13:42.668Z,44.30
2023-04-02T19:16:40.828Z,44.40
2023-04-02T19:19:17.015Z,44.20
2023-04-02T19:22:00.678Z,44.50
2023-04-02T19:24:42.980Z,44.10
2023-04-02T19:27:16.072Z,44.40
2023-04-02T19:29:54.351Z,44.80
2023-04-02T19:32:32.596Z,44.40
2023-04-02T19:35:09.829Z,44.40
2023-04-02T19:37:40.260Z,44.30
2023-04-02T19:40:19.388Z,44.30
2023-04-02T19:42:47.994Z,44.50
2023-04-02T19:45:28.280Z,44.60
2023-04-02T19:47:56.523Z,44.50
2023-04-02T19:50:24.603Z,44.70
2023-04-02T19:52:51.279Z,44.60
2023-04-02T19:55:18.081Z,44.60
2023-04-02T19:57:44.859Z,44.60
2023-04-02T20:00:13.417Z,44.60
2023-04-02T20:02:40.219Z,44.70
2023-04-02T20:05:07.980Z,45.90
2023-04-02T20:07:36.081Z,46.00
2023-04-02T20:10:02.991Z,45.90
2023-04-02T20:12:29.643Z,46.00
2023-04-02T20:14:56.291Z,46.10
2023-04-02T20:17:22.992Z,46.00
2023-04-02T20:19:49.717Z,46.10
2023-04-02T20:22:16.369Z,46.00
2023-04-02T20:24:44.463Z,45.90
2023-04-02T20:27:11.162Z,46.10
2023-04-02T20:29:37.851Z,46.20
2023-04-02T20:32:04.779Z,46.10
2023-04-02T20:34:31.528Z,46.20
2023-04-02T20:36:58.269Z,46.20
2023-04-02T20:39:24.993Z,46.40
2023-04-02T20:41:53.023Z,46.40
2023-04-02T20:44:19.693Z,46.40
2023-04-02T20:46:46.359Z,46.40
2023-04-02T20:49:13.011Z,46.40
2023-04-02T20:51:39.713Z,46.40
2023-04-02T20:54:06.362Z,46.40
2023-04-02T20:56:33.044Z,46.40
2023-04-02T20:59:01.094Z,46.50
2023-04-02T21:01:29.859Z,46.50
2023-04-02T21:03:57.868Z,46.50
2023-04-02T21:06:26.333Z,46.60
2023-04-02T21:08:53.146Z,46.50
2023-04-02T21:11:20.274Z,46.60
2023-04-02T21:13:46.946Z,46.60
2023-04-02T21:16:17.024Z,46.60
2023-04-02T21:18:43.909Z,47.20
2023-04-02T21:21:11.444Z,46.40
2023-04-02T21:23:38.070Z,46.60
2023-04-02T21:26:06.658Z,46.70
2023-04-02T21:28:34.462Z,46.80
2023-04-02T21:31:05.839Z,46.70
2023-04-02T21:33:37.002Z,46.70
2023-04-02T21:36:08.971Z,46.60
2023-04-02T21:38:35.968Z,46.70
2023-04-02T21:41:13.491Z,46.80
2023-04-02T21:43:40.225Z,46.70
2023-04-02T21:46:06.890Z,46.80
2023-04-02T21:48:35.194Z,46.70
2023-04-02T21:51:10.013Z,46.70
2023-04-02T21:53:36.880Z,46.70
2023-04-02T21:56:05.984Z,46.80
2023-04-02T21:58:32.743Z,46.70
2023-04-02T22:00:59.488Z,46.70
2023-04-02T22:03:31.727Z,46.70
2023-04-02T22:06:06.087Z,46.70
2023-04-02T22:08:33.142Z,46.70
2023-04-02T22:11:05.122Z,46.80
2023-04-02T22:13:31.847Z,46.80
2023-04-02T22:16:00.413Z,46.90
2023-04-02T22:18:27.052Z,46.90
2023-04-02T22:20:54.432Z,46.90
2023-04-02T22:23:22.525Z,47.00
2023-04-02T22:25:49.216Z,47.00
2023-04-02T22:28:15.909Z,46.90
2023-04-02T22:30:42.603Z,47.00
2023-04-02T22:33:09.347Z,47.10
2023-04-02T22:35:36.226Z,46.90
2023-04-02T22:38:02.953Z,46.90
2023-04-02T22:40:31.256Z,46.90
2023-04-02T22:42:57.972Z,46.90
2023-04-02T22:45:24.729Z,46.90
2023-04-02T22:47:51.564Z,46.90
2023-04-02T22:50:19.047Z,46.90
2023-04-02T22:52:46.124Z,46.90
2023-04-02T22:55:14.448Z,46.90
2023-04-02T22:57:42.916Z,47.00
2023-04-02T23:00:12.105Z,47.00
2023-04-02T23:02:39.059Z,46.90
2023-04-02T23:05:06.836Z,47.10
2023-04-02T23:07:33.649Z,46.90
2023-04-02T23:10:00.478Z,46.90
2023-04-02T23:12:27.309Z,46.90
2023-04-02T23:14:55.365Z,46.90
2023-04-02T23:17:22.010Z,46.90
2023-04-02T23:19:48.656Z,46.90
2023-04-02T23:22:15.413Z,46.90
2023-04-02T23:24:42.077Z,46.80
2023-04-02T23:27:08.945Z,46.80
2023-04-02T23:29:35.621Z,47.00
2023-04-02T23:32:03.715Z,47.10
2023-04-02T23:34:30.400Z,46.90
2023-04-02T23:36:57.081Z,47.00
2023-04-02T23:39:23.837Z,46.90
2023-04-02T23:41:50.465Z,46.90
2023-04-02T23:44:17.139Z,46.90
2023-04-02T23:46:43.793Z,47.10
2023-04-02T23:49:11.938Z,47.00
2023-04-02T23:51:38.805Z,47.00
2023-04-02T23:54:05.468Z,47.00
2023-04-02T23:56:32.148Z,47.00
2023-04-02T23:58:58.877Z,46.90
